sensor_id;sensor_type;location;lat;lon;timestamp;P1;durP1;ratioP1;P2;durP2;ratioP2
12554;SDS011;6343;50.868;4.700;2023-02-26T00:00:11;13.80;;;4.27;;
12554;SDS011;6343;50.868;4.700;2023-02-26T00:02:43;9.00;;;4.00;;
12554;SDS011;6343;50.868;4.700;2023-02-26T00:05:12;7.67;;;3.83;;
12554;SDS011;6343;50.868;4.700;2023-02-26T00:07:38;11.90;;;4.03;;
12554;SDS011;6343;50.868;4.700;2023-02-26T00:10:04;10.90;;;3.83;;
12554;SDS011;6343;50.868;4.700;2023-02-26T00:12:31;12.87;;;4.00;;
12554;SDS011;6343;50.868;4.700;2023-02-26T00:14:57;14.30;;;4.47;;
12554;SDS011;6343;50.868;4.700;2023-02-26T00:19:49;9.97;;;4.40;;
12554;SDS011;6343;50.868;4.700;2023-02-26T00:22:16;9.87;;;4.30;;
12554;SDS011;6343;50.868;4.700;2023-02-26T00:24:42;10.50;;;3.87;;
12554;SDS011;6343;50.868;4.700;2023-02-26T00:27:09;13.20;;;4.90;;
12554;SDS011;6343;50.868;4.700;2023-02-26T00:29:36;10.23;;;4.13;;
12554;SDS011;6343;50.868;4.700;2023-02-26T00:32:02;13.17;;;3.90;;
12554;SDS011;6343;50.868;4.700;2023-02-26T00:34:28;10.37;;;4.13;;
12554;SDS011;6343;50.868;4.700;2023-02-26T00:41:56;9.30;;;3.97;;
12554;SDS011;6343;50.868;4.700;2023-02-26T00:44:22;12.57;;;4.17;;
12554;SDS011;6343;50.868;4.700;2023-02-26T00:46:51;9.80;;;3.90;;
12554;SDS011;6343;50.868;4.700;2023-02-26T00:49:26;10.63;;;4.77;;
12554;SDS011;6343;50.868;4.700;2023-02-26T00:51:58;15.97;;;4.33;;
12554;SDS011;6343;50.868;4.700;2023-02-26T00:54:25;15.63;;;4.00;;
12554;SDS011;6343;50.868;4.700;2023-02-26T00:56:52;8.43;;;3.87;;
12554;SDS011;6343;50.868;4.700;2023-02-26T00:59:19;11.23;;;4.03;;
12554;SDS011;6343;50.868;4.700;2023-02-26T01:01:45;9.93;;;4.20;;
12554;SDS011;6343;50.868;4.700;2023-02-26T01:04:13;12.97;;;4.07;;
12554;SDS011;6343;50.868;4.700;2023-02-26T01:06:50;9.77;;;4.20;;
12554;SDS011;6343;50.868;4.700;2023-02-26T01:09:27;8.93;;;3.93;;
12554;SDS011;6343;50.868;4.700;2023-02-26T01:11:54;8.20;;;4.03;;
12554;SDS011;6343;50.868;4.700;2023-02-26T01:14:21;12.43;;;4.33;;
12554;SDS011;6343;50.868;4.700;2023-02-26T01:19:19;11.10;;;3.83;;
12554;SDS011;6343;50.868;4.700;2023-02-26T01:21:51;10.03;;;4.23;;
12554;SDS011;6343;50.868;4.700;2023-02-26T01:24:18;10.73;;;4.17;;
12554;SDS011;6343;50.868;4.700;2023-02-26T01:26:47;12.07;;;4.13;;
12554;SDS011;6343;50.868;4.700;2023-02-26T01:29:14;7.17;;;3.70;;
12554;SDS011;6343;50.868;4.700;2023-02-26T01:31:42;7.40;;;3.70;;
12554;SDS011;6343;50.868;4.700;2023-02-26T01:34:18;13.17;;;3.97;;
12554;SDS011;6343;50.868;4.700;2023-02-26T01:39:48;8.40;;;4.00;;
12554;SDS011;6343;50.868;4.700;2023-02-26T01:42:17;9.57;;;3.70;;
12554;SDS011;6343;50.868;4.700;2023-02-26T01:45:31;12.83;;;4.20;;
12554;SDS011;6343;50.868;4.700;2023-02-26T01:49:57;11.73;;;3.80;;
12554;SDS011;6343;50.868;4.700;2023-02-26T01:55:05;12.77;;;4.93;;
12554;SDS011;6343;50.868;4.700;2023-02-26T01:57:31;15.53;;;4.00;;
12554;SDS011;6343;50.868;4.700;2023-02-26T01:59:57;10.97;;;4.30;;
12554;SDS011;6343;50.868;4.700;2023-02-26T02:02:23;10.73;;;3.83;;
12554;SDS011;6343;50.868;4.700;2023-02-26T02:04:50;8.47;;;3.50;;
12554;SDS011;6343;50.868;4.700;2023-02-26T02:07:16;11.23;;;3.77;;
12554;SDS011;6343;50.868;4.700;2023-02-26T02:09:42;8.77;;;3.67;;
12554;SDS011;6343;50.868;4.700;2023-02-26T02:19:49;12.20;;;3.97;;
12554;SDS011;6343;50.868;4.700;2023-02-26T02:27:58;9.33;;;4.07;;
12554;SDS011;6343;50.868;4.700;2023-02-26T02:30:28;15.40;;;5.20;;
12554;SDS011;6343;50.868;4.700;2023-02-26T02:32:57;9.20;;;4.13;;
12554;SDS011;6343;50.868;4.700;2023-02-26T02:35:27;8.87;;;3.30;;
12554;SDS011;6343;50.868;4.700;2023-02-26T02:37:57;8.83;;;3.87;;
12554;SDS011;6343;50.868;4.700;2023-02-26T02:40:29;8.13;;;3.53;;
12554;SDS011;6343;50.868;4.700;2023-02-26T02:42:58;5.93;;;3.30;;
12554;SDS011;6343;50.868;4.700;2023-02-26T02:45:37;8.47;;;4.00;;
12554;SDS011;6343;50.868;4.700;2023-02-26T02:48:11;9.37;;;3.47;;
12554;SDS011;6343;50.868;4.700;2023-02-26T02:50:39;8.37;;;3.63;;
12554;SDS011;6343;50.868;4.700;2023-02-26T02:53:18;6.97;;;3.80;;
12554;SDS011;6343;50.868;4.700;2023-02-26T02:55:49;10.00;;;4.50;;
12554;SDS011;6343;50.868;4.700;2023-02-26T02:58:17;5.10;;;3.00;;
12554;SDS011;6343;50.868;4.700;2023-02-26T03:00:47;12.43;;;4.00;;
12554;SDS011;6343;50.868;4.700;2023-02-26T03:03:25;10.63;;;3.60;;
12554;SDS011;6343;50.868;4.700;2023-02-26T03:05:53;9.07;;;3.10;;
12554;SDS011;6343;50.868;4.700;2023-02-26T03:08:21;7.23;;;3.23;;
12554;SDS011;6343;50.868;4.700;2023-02-26T03:10:47;8.60;;;3.40;;
12554;SDS011;6343;50.868;4.700;2023-02-26T03:13:18;8.67;;;3.87;;
12554;SDS011;6343;50.868;4.700;2023-02-26T03:18:17;12.77;;;3.57;;
12554;SDS011;6343;50.868;4.700;2023-02-26T03:23:41;6.40;;;2.83;;
12554;SDS011;6343;50.868;4.700;2023-02-26T03:26:13;8.67;;;3.60;;
12554;SDS011;6343;50.868;4.700;2023-02-26T03:28:42;10.57;;;3.40;;
12554;SDS011;6343;50.868;4.700;2023-02-26T03:31:17;7.77;;;3.77;;
12554;SDS011;6343;50.868;4.700;2023-02-26T03:33:52;11.90;;;3.07;;
12554;SDS011;6343;50.868;4.700;2023-02-26T03:37:20;7.83;;;3.30;;
12554;SDS011;6343;50.868;4.700;2023-02-26T03:41:52;11.37;;;3.40;;
12554;SDS011;6343;50.868;4.700;2023-02-26T03:44:43;11.67;;;3.10;;
12554;SDS011;6343;50.868;4.700;2023-02-26T03:47:07;16.27;;;3.27;;
12554;SDS011;6343;50.868;4.700;2023-02-26T03:49:40;8.27;;;2.90;;
12554;SDS011;6343;50.868;4.700;2023-02-26T03:52:07;9.37;;;3.20;;
12554;SDS011;6343;50.868;4.700;2023-02-26T03:54:38;7.90;;;3.13;;
12554;SDS011;6343;50.868;4.700;2023-02-26T03:57:06;6.23;;;3.13;;
12554;SDS011;6343;50.868;4.700;2023-02-26T03:59:32;10.53;;;3.07;;
12554;SDS011;6343;50.868;4.700;2023-02-26T04:07:01;6.90;;;2.43;;
12554;SDS011;6343;50.868;4.700;2023-02-26T04:09:27;7.80;;;2.70;;
12554;SDS011;6343;50.868;4.700;2023-02-26T04:11:53;4.87;;;2.70;;
12554;SDS011;6343;50.868;4.700;2023-02-26T04:14:21;6.37;;;2.77;;
12554;SDS011;6343;50.868;4.700;2023-02-26T04:16:47;7.37;;;2.90;;
12554;SDS011;6343;50.868;4.700;2023-02-26T04:19:13;8.00;;;3.20;;
12554;SDS011;6343;50.868;4.700;2023-02-26T04:21:39;6.83;;;2.93;;
12554;SDS011;6343;50.868;4.700;2023-02-26T04:24:05;9.60;;;3.07;;
12554;SDS011;6343;50.868;4.700;2023-02-26T04:26:31;10.17;;;3.00;;
12554;SDS011;6343;50.868;4.700;2023-02-26T04:28:57;5.93;;;2.37;;
12554;SDS011;6343;50.868;4.700;2023-02-26T04:31:23;5.63;;;2.47;;
12554;SDS011;6343;50.868;4.700;2023-02-26T04:33:49;4.37;;;2.30;;
12554;SDS011;6343;50.868;4.700;2023-02-26T04:36:15;5.60;;;2.40;;
12554;SDS011;6343;50.868;4.700;2023-02-26T04:38:41;10.97;;;3.00;;
12554;SDS011;6343;50.868;4.700;2023-02-26T04:41:08;5.30;;;2.17;;
12554;SDS011;6343;50.868;4.700;2023-02-26T04:43:34;8.20;;;2.43;;
12554;SDS011;6343;50.868;4.700;2023-02-26T04:46:01;9.17;;;3.43;;
12554;SDS011;6343;50.868;4.700;2023-02-26T04:48:27;10.17;;;2.67;;
12554;SDS011;6343;50.868;4.700;2023-02-26T04:50:54;11.47;;;2.50;;
12554;SDS011;6343;50.868;4.700;2023-02-26T04:53:20;7.90;;;2.30;;
12554;SDS011;6343;50.868;4.700;2023-02-26T04:55:46;4.20;;;2.30;;
12554;SDS011;6343;50.868;4.700;2023-02-26T04:58:12;10.50;;;2.33;;
12554;SDS011;6343;50.868;4.700;2023-02-26T05:00:38;8.63;;;2.73;;
12554;SDS011;6343;50.868;4.700;2023-02-26T05:03:05;6.83;;;2.40;;
12554;SDS011;6343;50.868;4.700;2023-02-26T05:05:31;3.40;;;1.63;;
12554;SDS011;6343;50.868;4.700;2023-02-26T05:07:57;7.73;;;2.03;;
12554;SDS011;6343;50.868;4.700;2023-02-26T05:10:24;5.27;;;2.27;;
12554;SDS011;6343;50.868;4.700;2023-02-26T05:12:51;6.10;;;2.43;;
12554;SDS011;6343;50.868;4.700;2023-02-26T05:15:17;12.77;;;2.70;;
12554;SDS011;6343;50.868;4.700;2023-02-26T05:17:43;8.17;;;2.80;;
12554;SDS011;6343;50.868;4.700;2023-02-26T05:20:09;4.80;;;1.90;;
12554;SDS011;6343;50.868;4.700;2023-02-26T05:22:36;5.37;;;2.10;;
12554;SDS011;6343;50.868;4.700;2023-02-26T05:25:02;8.73;;;2.30;;
12554;SDS011;6343;50.868;4.700;2023-02-26T05:27:29;4.57;;;1.80;;
12554;SDS011;6343;50.868;4.700;2023-02-26T05:29:55;4.20;;;1.67;;
12554;SDS011;6343;50.868;4.700;2023-02-26T05:32:21;5.20;;;2.20;;
12554;SDS011;6343;50.868;4.700;2023-02-26T05:34:47;3.97;;;1.90;;
12554;SDS011;6343;50.868;4.700;2023-02-26T05:37:13;4.40;;;2.00;;
12554;SDS011;6343;50.868;4.700;2023-02-26T05:39:39;8.03;;;1.87;;
12554;SDS011;6343;50.868;4.700;2023-02-26T05:42:06;11.63;;;2.10;;
12554;SDS011;6343;50.868;4.700;2023-02-26T05:44:32;6.70;;;2.03;;
12554;SDS011;6343;50.868;4.700;2023-02-26T05:46:59;6.30;;;2.00;;
12554;SDS011;6343;50.868;4.700;2023-02-26T05:49:25;7.60;;;2.30;;
12554;SDS011;6343;50.868;4.700;2023-02-26T05:51:51;7.30;;;1.90;;
12554;SDS011;6343;50.868;4.700;2023-02-26T05:54:18;5.33;;;1.90;;
12554;SDS011;6343;50.868;4.700;2023-02-26T05:56:44;6.13;;;2.03;;
12554;SDS011;6343;50.868;4.700;2023-02-26T05:59:10;10.03;;;2.00;;
12554;SDS011;6343;50.868;4.700;2023-02-26T06:01:36;9.63;;;1.87;;
12554;SDS011;6343;50.868;4.700;2023-02-26T06:04:05;7.20;;;1.60;;
12554;SDS011;6343;50.868;4.700;2023-02-26T06:06:31;6.77;;;2.10;;
12554;SDS011;6343;50.868;4.700;2023-02-26T06:08:58;5.30;;;1.70;;
12554;SDS011;6343;50.868;4.700;2023-02-26T06:11:26;4.27;;;1.60;;
12554;SDS011;6343;50.868;4.700;2023-02-26T06:13:52;5.60;;;2.50;;
12554;SDS011;6343;50.868;4.700;2023-02-26T06:16:18;4.70;;;1.57;;
12554;SDS011;6343;50.868;4.700;2023-02-26T06:18:45;4.37;;;1.60;;
12554;SDS011;6343;50.868;4.700;2023-02-26T06:21:11;6.50;;;2.23;;
12554;SDS011;6343;50.868;4.700;2023-02-26T06:23:37;4.93;;;1.90;;
12554;SDS011;6343;50.868;4.700;2023-02-26T06:26:04;6.53;;;1.73;;
12554;SDS011;6343;50.868;4.700;2023-02-26T06:28:30;4.07;;;1.60;;
12554;SDS011;6343;50.868;4.700;2023-02-26T06:30:56;8.03;;;1.80;;
12554;SDS011;6343;50.868;4.700;2023-02-26T06:33:22;6.93;;;2.13;;
12554;SDS011;6343;50.868;4.700;2023-02-26T06:35:49;4.33;;;1.60;;
12554;SDS011;6343;50.868;4.700;2023-02-26T06:38:15;5.73;;;1.60;;
12554;SDS011;6343;50.868;4.700;2023-02-26T06:40:41;4.13;;;1.63;;
12554;SDS011;6343;50.868;4.700;2023-02-26T06:43:07;3.63;;;1.67;;
12554;SDS011;6343;50.868;4.700;2023-02-26T06:45:33;4.60;;;1.60;;
12554;SDS011;6343;50.868;4.700;2023-02-26T06:48:00;6.20;;;1.63;;
12554;SDS011;6343;50.868;4.700;2023-02-26T06:50:26;4.50;;;1.60;;
12554;SDS011;6343;50.868;4.700;2023-02-26T06:52:52;3.53;;;1.57;;
12554;SDS011;6343;50.868;4.700;2023-02-26T06:55:18;10.47;;;1.97;;
12554;SDS011;6343;50.868;4.700;2023-02-26T06:57:46;5.17;;;1.47;;
12554;SDS011;6343;50.868;4.700;2023-02-26T07:00:12;6.33;;;1.43;;
12554;SDS011;6343;50.868;4.700;2023-02-26T07:02:39;7.60;;;1.63;;
12554;SDS011;6343;50.868;4.700;2023-02-26T07:05:05;9.53;;;2.03;;
12554;SDS011;6343;50.868;4.700;2023-02-26T07:07:31;7.43;;;1.60;;
12554;SDS011;6343;50.868;4.700;2023-02-26T07:09:57;4.63;;;1.40;;
12554;SDS011;6343;50.868;4.700;2023-02-26T07:12:23;4.00;;;1.67;;
12554;SDS011;6343;50.868;4.700;2023-02-26T07:14:49;6.00;;;1.93;;
12554;SDS011;6343;50.868;4.700;2023-02-26T07:17:15;6.77;;;2.67;;
12554;SDS011;6343;50.868;4.700;2023-02-26T07:19:45;6.13;;;1.63;;
12554;SDS011;6343;50.868;4.700;2023-02-26T07:22:12;10.33;;;1.73;;
12554;SDS011;6343;50.868;4.700;2023-02-26T07:24:38;6.90;;;2.33;;
12554;SDS011;6343;50.868;4.700;2023-02-26T07:27:04;6.77;;;1.70;;
12554;SDS011;6343;50.868;4.700;2023-02-26T07:29:30;10.30;;;2.17;;
12554;SDS011;6343;50.868;4.700;2023-02-26T07:31:56;3.63;;;1.53;;
12554;SDS011;6343;50.868;4.700;2023-02-26T07:34:22;7.37;;;1.80;;
12554;SDS011;6343;50.868;4.700;2023-02-26T07:36:48;4.43;;;1.60;;
12554;SDS011;6343;50.868;4.700;2023-02-26T07:39:14;5.90;;;1.70;;
12554;SDS011;6343;50.868;4.700;2023-02-26T07:41:40;6.67;;;1.80;;
12554;SDS011;6343;50.868;4.700;2023-02-26T07:44:06;4.97;;;1.73;;
12554;SDS011;6343;50.868;4.700;2023-02-26T07:46:32;6.67;;;1.73;;
12554;SDS011;6343;50.868;4.700;2023-02-26T07:48:58;4.63;;;1.30;;
12554;SDS011;6343;50.868;4.700;2023-02-26T07:51:24;6.90;;;1.83;;
12554;SDS011;6343;50.868;4.700;2023-02-26T07:53:50;8.80;;;1.80;;
12554;SDS011;6343;50.868;4.700;2023-02-26T07:56:16;7.97;;;2.40;;
12554;SDS011;6343;50.868;4.700;2023-02-26T07:58:42;8.07;;;2.63;;
12554;SDS011;6343;50.868;4.700;2023-02-26T08:01:08;8.20;;;2.00;;
12554;SDS011;6343;50.868;4.700;2023-02-26T08:03:35;12.73;;;4.07;;
12554;SDS011;6343;50.868;4.700;2023-02-26T08:06:01;8.53;;;2.50;;
12554;SDS011;6343;50.868;4.700;2023-02-26T08:08:27;24.83;;;6.40;;
12554;SDS011;6343;50.868;4.700;2023-02-26T08:10:53;2.63;;;1.30;;
12554;SDS011;6343;50.868;4.700;2023-02-26T08:13:19;15.47;;;4.57;;
12554;SDS011;6343;50.868;4.700;2023-02-26T08:15:49;9.00;;;2.73;;
12554;SDS011;6343;50.868;4.700;2023-02-26T08:18:15;7.27;;;2.33;;
12554;SDS011;6343;50.868;4.700;2023-02-26T08:20:41;6.73;;;1.63;;
12554;SDS011;6343;50.868;4.700;2023-02-26T08:23:07;10.10;;;3.60;;
12554;SDS011;6343;50.868;4.700;2023-02-26T08:25:33;16.87;;;5.07;;
12554;SDS011;6343;50.868;4.700;2023-02-26T08:27:59;8.50;;;3.53;;
12554;SDS011;6343;50.868;4.700;2023-02-26T08:30:27;9.97;;;3.40;;
12554;SDS011;6343;50.868;4.700;2023-02-26T08:32:53;5.83;;;1.30;;
12554;SDS011;6343;50.868;4.700;2023-02-26T08:35:19;5.03;;;1.90;;
12554;SDS011;6343;50.868;4.700;2023-02-26T08:37:45;2.77;;;1.30;;
12554;SDS011;6343;50.868;4.700;2023-02-26T08:40:11;4.80;;;1.80;;
12554;SDS011;6343;50.868;4.700;2023-02-26T08:42:38;4.53;;;1.60;;
12554;SDS011;6343;50.868;4.700;2023-02-26T08:45:04;3.17;;;1.20;;
12554;SDS011;6343;50.868;4.700;2023-02-26T08:47:30;4.63;;;2.70;;
12554;SDS011;6343;50.868;4.700;2023-02-26T08:49:56;1.90;;;1.10;;
12554;SDS011;6343;50.868;4.700;2023-02-26T08:52:23;4.07;;;1.60;;
12554;SDS011;6343;50.868;4.700;2023-02-26T08:54:49;5.37;;;1.60;;
12554;SDS011;6343;50.868;4.700;2023-02-26T08:57:18;4.93;;;1.40;;
12554;SDS011;6343;50.868;4.700;2023-02-26T08:59:44;3.33;;;1.23;;
12554;SDS011;6343;50.868;4.700;2023-02-26T09:02:10;2.23;;;1.30;;
12554;SDS011;6343;50.868;4.700;2023-02-26T09:04:36;5.10;;;1.40;;
12554;SDS011;6343;50.868;4.700;2023-02-26T09:07:03;5.23;;;1.10;;
12554;SDS011;6343;50.868;4.700;2023-02-26T09:09:29;3.97;;;1.30;;
12554;SDS011;6343;50.868;4.700;2023-02-26T09:11:55;3.77;;;1.07;;
12554;SDS011;6343;50.868;4.700;2023-02-26T09:14:21;5.30;;;1.30;;
12554;SDS011;6343;50.868;4.700;2023-02-26T09:16:47;2.73;;;1.27;;
12554;SDS011;6343;50.868;4.700;2023-02-26T09:19:13;4.27;;;1.40;;
12554;SDS011;6343;50.868;4.700;2023-02-26T09:21:39;5.23;;;1.33;;
12554;SDS011;6343;50.868;4.700;2023-02-26T09:24:05;2.70;;;1.20;;
12554;SDS011;6343;50.868;4.700;2023-02-26T09:26:32;3.67;;;0.83;;
12554;SDS011;6343;50.868;4.700;2023-02-26T09:28:58;9.17;;;1.27;;
12554;SDS011;6343;50.868;4.700;2023-02-26T09:31:24;4.13;;;1.27;;
12554;SDS011;6343;50.868;4.700;2023-02-26T09:33:50;3.47;;;1.10;;
12554;SDS011;6343;50.868;4.700;2023-02-26T09:36:16;5.57;;;1.37;;
12554;SDS011;6343;50.868;4.700;2023-02-26T09:38:42;3.13;;;1.27;;
12554;SDS011;6343;50.868;4.700;2023-02-26T09:48:49;6.57;;;1.23;;
12554;SDS011;6343;50.868;4.700;2023-02-26T09:51:18;5.07;;;1.40;;
12554;SDS011;6343;50.868;4.700;2023-02-26T09:53:45;4.23;;;1.47;;
12554;SDS011;6343;50.868;4.700;2023-02-26T09:56:15;2.83;;;1.10;;
12554;SDS011;6343;50.868;4.700;2023-02-26T09:58:42;5.60;;;1.03;;
12554;SDS011;6343;50.868;4.700;2023-02-26T10:04:32;2.47;;;1.00;;
12554;SDS011;6343;50.868;4.700;2023-02-26T10:07:10;3.27;;;1.10;;
12554;SDS011;6343;50.868;4.700;2023-02-26T10:12:25;6.87;;;1.60;;
12554;SDS011;6343;50.868;4.700;2023-02-26T10:14:59;1.20;;;0.90;;
12554;SDS011;6343;50.868;4.700;2023-02-26T10:17:37;1.40;;;0.90;;
12554;SDS011;6343;50.868;4.700;2023-02-26T10:20:25;2.37;;;0.80;;
12554;SDS011;6343;50.868;4.700;2023-02-26T10:25:22;2.67;;;1.00;;
12554;SDS011;6343;50.868;4.700;2023-02-26T10:28:09;1.57;;;0.63;;
12554;SDS011;6343;50.868;4.700;2023-02-26T10:30:43;3.47;;;1.13;;
12554;SDS011;6343;50.868;4.700;2023-02-26T10:35:40;5.17;;;3.63;;
12554;SDS011;6343;50.868;4.700;2023-02-26T10:38:10;3.70;;;0.83;;
12554;SDS011;6343;50.868;4.700;2023-02-26T10:40:46;1.30;;;0.67;;
12554;SDS011;6343;50.868;4.700;2023-02-26T10:45:45;4.03;;;1.50;;
12554;SDS011;6343;50.868;4.700;2023-02-26T10:50:55;3.07;;;0.80;;
12554;SDS011;6343;50.868;4.700;2023-02-26T10:53:21;1.57;;;0.70;;
12554;SDS011;6343;50.868;4.700;2023-02-26T10:55:51;6.37;;;1.90;;
12554;SDS011;6343;50.868;4.700;2023-02-26T10:58:24;2.80;;;1.00;;
12554;SDS011;6343;50.868;4.700;2023-02-26T11:00:51;4.97;;;1.20;;
12554;SDS011;6343;50.868;4.700;2023-02-26T11:05:44;2.53;;;0.83;;
12554;SDS011;6343;50.868;4.700;2023-02-26T11:08:15;1.07;;;0.80;;
12554;SDS011;6343;50.868;4.700;2023-02-26T11:13:11;2.50;;;0.90;;
12554;SDS011;6343;50.868;4.700;2023-02-26T11:15:37;1.93;;;0.90;;
12554;SDS011;6343;50.868;4.700;2023-02-26T11:18:04;3.97;;;0.90;;
12554;SDS011;6343;50.868;4.700;2023-02-26T11:20:33;4.30;;;0.93;;
12554;SDS011;6343;50.868;4.700;2023-02-26T11:23:00;2.00;;;1.40;;
12554;SDS011;6343;50.868;4.700;2023-02-26T11:25:28;3.03;;;1.57;;
12554;SDS011;6343;50.868;4.700;2023-02-26T11:27:59;2.60;;;0.90;;
12554;SDS011;6343;50.868;4.700;2023-02-26T11:30:26;4.70;;;1.80;;
12554;SDS011;6343;50.868;4.700;2023-02-26T11:32:55;2.20;;;1.03;;
12554;SDS011;6343;50.868;4.700;2023-02-26T11:35:23;1.10;;;0.67;;
12554;SDS011;6343;50.868;4.700;2023-02-26T11:37:55;7.33;;;1.93;;
12554;SDS011;6343;50.868;4.700;2023-02-26T11:40:27;6.07;;;1.20;;
12554;SDS011;6343;50.868;4.700;2023-02-26T11:42:58;1.43;;;0.90;;
12554;SDS011;6343;50.868;4.700;2023-02-26T11:45:24;2.00;;;0.63;;
12554;SDS011;6343;50.868;4.700;2023-02-26T11:47:58;1.90;;;0.80;;
12554;SDS011;6343;50.868;4.700;2023-02-26T11:50:26;4.73;;;1.37;;
12554;SDS011;6343;50.868;4.700;2023-02-26T11:52:56;3.17;;;0.80;;
12554;SDS011;6343;50.868;4.700;2023-02-26T11:55:33;3.53;;;0.90;;
12554;SDS011;6343;50.868;4.700;2023-02-26T11:58:00;3.30;;;0.83;;
12554;SDS011;6343;50.868;4.700;2023-02-26T12:00:31;1.17;;;0.90;;
12554;SDS011;6343;50.868;4.700;2023-02-26T12:03:01;0.60;;;0.50;;
12554;SDS011;6343;50.868;4.700;2023-02-26T12:05:28;1.40;;;0.70;;
12554;SDS011;6343;50.868;4.700;2023-02-26T12:07:56;2.13;;;1.00;;
12554;SDS011;6343;50.868;4.700;2023-02-26T12:10:28;3.20;;;1.33;;
12554;SDS011;6343;50.868;4.700;2023-02-26T12:13:03;2.20;;;0.90;;
12554;SDS011;6343;50.868;4.700;2023-02-26T12:15:52;1.33;;;0.93;;
12554;SDS011;6343;50.868;4.700;2023-02-26T12:26:01;6.03;;;1.20;;
12554;SDS011;6343;50.868;4.700;2023-02-26T12:28:42;2.17;;;0.90;;
12554;SDS011;6343;50.868;4.700;2023-02-26T12:31:20;3.47;;;0.97;;
12554;SDS011;6343;50.868;4.700;2023-02-26T12:38:58;2.50;;;0.90;;
12554;SDS011;6343;50.868;4.700;2023-02-26T12:46:49;3.67;;;0.90;;
12554;SDS011;6343;50.868;4.700;2023-02-26T12:51:49;1.63;;;1.07;;
12554;SDS011;6343;50.868;4.700;2023-02-26T12:59:44;2.63;;;0.70;;
12554;SDS011;6343;50.868;4.700;2023-02-26T13:07:40;2.03;;;0.80;;
12554;SDS011;6343;50.868;4.700;2023-02-26T13:10:36;1.37;;;0.80;;
12554;SDS011;6343;50.868;4.700;2023-02-26T13:13:27;3.43;;;0.93;;
12554;SDS011;6343;50.868;4.700;2023-02-26T13:21:04;1.63;;;0.80;;
12554;SDS011;6343;50.868;4.700;2023-02-26T13:23:35;1.83;;;0.80;;
12554;SDS011;6343;50.868;4.700;2023-02-26T13:26:07;2.47;;;0.70;;
12554;SDS011;6343;50.868;4.700;2023-02-26T13:28:38;3.67;;;1.77;;
12554;SDS011;6343;50.868;4.700;2023-02-26T13:31:16;4.47;;;1.20;;
12554;SDS011;6343;50.868;4.700;2023-02-26T13:33:43;1.77;;;0.67;;
12554;SDS011;6343;50.868;4.700;2023-02-26T13:36:10;1.37;;;0.60;;
12554;SDS011;6343;50.868;4.700;2023-02-26T13:41:11;2.43;;;1.07;;
12554;SDS011;6343;50.868;4.700;2023-02-26T13:53:51;2.20;;;1.50;;
12554;SDS011;6343;50.868;4.700;2023-02-26T13:58:48;3.07;;;1.80;;
12554;SDS011;6343;50.868;4.700;2023-02-26T14:01:18;5.53;;;1.53;;
12554;SDS011;6343;50.868;4.700;2023-02-26T14:03:47;3.87;;;1.30;;
12554;SDS011;6343;50.868;4.700;2023-02-26T14:08:46;1.60;;;1.10;;
12554;SDS011;6343;50.868;4.700;2023-02-26T14:14:04;5.63;;;1.20;;
12554;SDS011;6343;50.868;4.700;2023-02-26T14:16:28;1.90;;;0.90;;
12554;SDS011;6343;50.868;4.700;2023-02-26T14:19:04;2.47;;;0.80;;
12554;SDS011;6343;50.868;4.700;2023-02-26T14:24:24;2.83;;;1.63;;
12554;SDS011;6343;50.868;4.700;2023-02-26T14:32:34;2.17;;;0.90;;
12554;SDS011;6343;50.868;4.700;2023-02-26T14:35:14;3.07;;;0.90;;
12554;SDS011;6343;50.868;4.700;2023-02-26T14:37:42;1.73;;;1.20;;
12554;SDS011;6343;50.868;4.700;2023-02-26T14:40:15;2.90;;;1.60;;
12554;SDS011;6343;50.868;4.700;2023-02-26T14:42:50;3.30;;;1.10;;
12554;SDS011;6343;50.868;4.700;2023-02-26T14:45:21;2.97;;;1.17;;
12554;SDS011;6343;50.868;4.700;2023-02-26T14:47:49;1.47;;;0.83;;
12554;SDS011;6343;50.868;4.700;2023-02-26T14:50:16;2.43;;;0.93;;
12554;SDS011;6343;50.868;4.700;2023-02-26T14:58:32;3.60;;;1.00;;
12554;SDS011;6343;50.868;4.700;2023-02-26T15:01:07;1.40;;;0.80;;
12554;SDS011;6343;50.868;4.700;2023-02-26T15:03:46;4.10;;;0.93;;
12554;SDS011;6343;50.868;4.700;2023-02-26T15:06:37;4.67;;;1.00;;
12554;SDS011;6343;50.868;4.700;2023-02-26T15:09:23;2.53;;;0.97;;
12554;SDS011;6343;50.868;4.700;2023-02-26T15:25:15;1.40;;;0.80;;
12554;SDS011;6343;50.868;4.700;2023-02-26T15:27:43;2.13;;;0.87;;
12554;SDS011;6343;50.868;4.700;2023-02-26T15:30:14;1.37;;;0.80;;
12554;SDS011;6343;50.868;4.700;2023-02-26T15:32:40;2.10;;;1.13;;
12554;SDS011;6343;50.868;4.700;2023-02-26T15:35:16;1.87;;;0.67;;
12554;SDS011;6343;50.868;4.700;2023-02-26T15:37:47;2.63;;;0.70;;
12554;SDS011;6343;50.868;4.700;2023-02-26T15:40:13;2.77;;;0.80;;
12554;SDS011;6343;50.868;4.700;2023-02-26T15:42:40;3.37;;;0.90;;
12554;SDS011;6343;50.868;4.700;2023-02-26T15:45:14;4.43;;;0.90;;
12554;SDS011;6343;50.868;4.700;2023-02-26T15:47:43;2.97;;;1.17;;
12554;SDS011;6343;50.868;4.700;2023-02-26T15:50:12;2.10;;;0.90;;
12554;SDS011;6343;50.868;4.700;2023-02-26T15:52:38;2.07;;;0.80;;
12554;SDS011;6343;50.868;4.700;2023-02-26T15:55:05;1.20;;;0.77;;
12554;SDS011;6343;50.868;4.700;2023-02-26T15:57:31;3.37;;;1.23;;
12554;SDS011;6343;50.868;4.700;2023-02-26T16:00:05;4.30;;;1.10;;
12554;SDS011;6343;50.868;4.700;2023-02-26T16:02:32;5.10;;;1.10;;
12554;SDS011;6343;50.868;4.700;2023-02-26T16:05:00;4.70;;;1.00;;
12554;SDS011;6343;50.868;4.700;2023-02-26T16:07:26;2.17;;;1.13;;
12554;SDS011;6343;50.868;4.700;2023-02-26T16:09:53;2.83;;;1.40;;
12554;SDS011;6343;50.868;4.700;2023-02-26T16:12:31;3.67;;;1.27;;
12554;SDS011;6343;50.868;4.700;2023-02-26T16:15:00;1.40;;;0.90;;
12554;SDS011;6343;50.868;4.700;2023-02-26T16:17:29;1.93;;;1.10;;
12554;SDS011;6343;50.868;4.700;2023-02-26T16:19:57;3.27;;;1.40;;
12554;SDS011;6343;50.868;4.700;2023-02-26T16:22:37;2.60;;;1.40;;
12554;SDS011;6343;50.868;4.700;2023-02-26T16:25:11;2.40;;;0.90;;
12554;SDS011;6343;50.868;4.700;2023-02-26T16:27:40;3.40;;;1.07;;
12554;SDS011;6343;50.868;4.700;2023-02-26T16:30:13;4.73;;;1.10;;
12554;SDS011;6343;50.868;4.700;2023-02-26T16:32:42;0.83;;;0.83;;
12554;SDS011;6343;50.868;4.700;2023-02-26T16:35:16;3.23;;;1.10;;
12554;SDS011;6343;50.868;4.700;2023-02-26T16:37:46;2.23;;;1.13;;
12554;SDS011;6343;50.868;4.700;2023-02-26T16:40:27;4.30;;;1.43;;
12554;SDS011;6343;50.868;4.700;2023-02-26T16:43:01;3.57;;;1.30;;
12554;SDS011;6343;50.868;4.700;2023-02-26T16:48:46;5.60;;;1.80;;
12554;SDS011;6343;50.868;4.700;2023-02-26T16:51:12;4.37;;;1.60;;
12554;SDS011;6343;50.868;4.700;2023-02-26T16:54:21;3.07;;;1.60;;
12554;SDS011;6343;50.868;4.700;2023-02-26T16:56:28;2.93;;;1.53;;
12554;SDS011;6343;50.868;4.700;2023-02-26T17:01:29;2.70;;;1.47;;
12554;SDS011;6343;50.868;4.700;2023-02-26T17:03:59;1.80;;;1.20;;
12554;SDS011;6343;50.868;4.700;2023-02-26T17:06:26;3.20;;;1.30;;
12554;SDS011;6343;50.868;4.700;2023-02-26T17:08:56;3.23;;;1.33;;
12554;SDS011;6343;50.868;4.700;2023-02-26T17:11:24;9.10;;;1.87;;
12554;SDS011;6343;50.868;4.700;2023-02-26T17:14:08;4.80;;;1.70;;
12554;SDS011;6343;50.868;4.700;2023-02-26T17:16:35;3.17;;;1.87;;
12554;SDS011;6343;50.868;4.700;2023-02-26T17:19:01;3.70;;;1.20;;
12554;SDS011;6343;50.868;4.700;2023-02-26T17:21:27;4.30;;;2.13;;
12554;SDS011;6343;50.868;4.700;2023-02-26T17:23:53;4.30;;;1.50;;
12554;SDS011;6343;50.868;4.700;2023-02-26T17:26:19;3.03;;;1.50;;
12554;SDS011;6343;50.868;4.700;2023-02-26T17:28:47;5.73;;;1.80;;
12554;SDS011;6343;50.868;4.700;2023-02-26T17:31:13;2.97;;;1.60;;
12554;SDS011;6343;50.868;4.700;2023-02-26T17:33:40;3.57;;;1.50;;
12554;SDS011;6343;50.868;4.700;2023-02-26T17:36:09;8.20;;;1.87;;
12554;SDS011;6343;50.868;4.700;2023-02-26T17:38:38;5.20;;;1.60;;
12554;SDS011;6343;50.868;4.700;2023-02-26T17:41:06;4.80;;;1.70;;
12554;SDS011;6343;50.868;4.700;2023-02-26T17:43:33;4.47;;;2.00;;
12554;SDS011;6343;50.868;4.700;2023-02-26T17:45:59;3.17;;;1.67;;
12554;SDS011;6343;50.868;4.700;2023-02-26T17:48:25;6.30;;;2.93;;
12554;SDS011;6343;50.868;4.700;2023-02-26T17:50:53;5.17;;;2.67;;
12554;SDS011;6343;50.868;4.700;2023-02-26T17:53:20;2.77;;;1.60;;